sensor_id;sensor_type;location;lat;lon;timestamp;pressure;altitude;pressure_sealevel;temperature;humidity
17230;BME280;8731;50.364;8.958;2023-05-23T00:01:24;99868.34;;;19.92;85.36
17230;BME280;8731;50.364;8.958;2023-05-23T00:05:46;99878.69;;;20.10;82.19
17230;BME280;8731;50.364;8.958;2023-05-23T00:10:12;99873.66;;;19.96;84.71
17230;BME280;8731;50.364;8.958;2023-05-23T00:14:35;99869.81;;;20.05;81.97
17230;BME280;8731;50.364;8.958;2023-05-23T00:18:59;99877.56;;;19.87;84.58
17230;BME280;8731;50.364;8.958;2023-05-23T00:23:26;99874.84;;;19.68;86.70
17230;BME280;8731;50.364;8.958;2023-05-23T00:27:50;99878.75;;;19.78;85.06
17230;BME280;8731;50.364;8.958;2023-05-23T00:32:12;99881.34;;;19.61;86.26
17230;BME280;8731;50.364;8.958;2023-05-23T00:36:35;99892.16;;;19.22;87.99
17230;BME280;8731;50.364;8.958;2023-05-23T00:40:57;99896.50;;;19.39;85.49
17230;BME280;8731;50.364;8.958;2023-05-23T00:45:21;99895.97;;;19.61;82.60
17230;BME280;8731;50.364;8.958;2023-05-23T00:49:44;99894.91;;;19.25;85.76
17230;BME280;8731;50.364;8.958;2023-05-23T00:54:07;99895.13;;;19.29;85.38
17230;BME280;8731;50.364;8.958;2023-05-23T00:58:29;99900.50;;;19.01;87.30
17230;BME280;8731;50.364;8.958;2023-05-23T01:02:53;99905.09;;;19.07;86.81
17230;BME280;8731;50.364;8.958;2023-05-23T01:07:16;99913.66;;;19.06;86.48
17230;BME280;8731;50.364;8.958;2023-05-23T01:11:44;99909.72;;;18.82;89.03
17230;BME280;8731;50.364;8.958;2023-05-23T01:16:29;99917.59;;;18.99;86.96
17230;BME280;8731;50.364;8.958;2023-05-23T01:21:01;99905.16;;;18.92;86.69
17230;BME280;8731;50.364;8.958;2023-05-23T01:25:38;99908.00;;;18.97;86.24
17230;BME280;8731;50.364;8.958;2023-05-23T01:30:23;99910.66;;;18.98;85.43
17230;BME280;8731;50.364;8.958;2023-05-23T01:34:48;99907.53;;;19.04;84.62
17230;BME280;8731;50.364;8.958;2023-05-23T01:39:13;99902.16;;;18.85;86.87
17230;BME280;8731;50.364;8.958;2023-05-23T01:43:36;99897.84;;;19.00;84.79
17230;BME280;8731;50.364;8.958;2023-05-23T01:48:01;99904.69;;;18.99;85.14
17230;BME280;8731;50.364;8.958;2023-05-23T01:52:25;99902.13;;;18.99;85.75
17230;BME280;8731;50.364;8.958;2023-05-23T01:56:49;99910.66;;;18.98;85.45
17230;BME280;8731;50.364;8.958;2023-05-23T02:01:13;99900.69;;;19.05;84.83
17230;BME280;8731;50.364;8.958;2023-05-23T02:05:37;99903.16;;;19.03;85.01
17230;BME280;8731;50.364;8.958;2023-05-23T02:10:01;99917.44;;;18.96;85.94
17230;BME280;8731;50.364;8.958;2023-05-23T02:14:25;99911.56;;;18.99;84.71
17230;BME280;8731;50.364;8.958;2023-05-23T02:18:48;99914.50;;;18.90;85.81
17230;BME280;8731;50.364;8.958;2023-05-23T02:23:13;99919.50;;;18.87;84.99
17230;BME280;8731;50.364;8.958;2023-05-23T02:27:36;99929.31;;;18.78;85.15
17230;BME280;8731;50.364;8.958;2023-05-23T02:31:59;99926.91;;;18.81;83.71
17230;BME280;8731;50.364;8.958;2023-05-23T02:36:21;99926.91;;;18.81;83.26
17230;BME280;8731;50.364;8.958;2023-05-23T02:40:45;99932.38;;;18.71;82.72
17230;BME280;8731;50.364;8.958;2023-05-23T02:45:11;99941.22;;;18.61;83.68
17230;BME280;8731;50.364;8.958;2023-05-23T02:49:33;99955.38;;;18.38;83.98
17230;BME280;8731;50.364;8.958;2023-05-23T02:53:56;99958.47;;;18.33;83.31
17230;BME280;8731;50.364;8.958;2023-05-23T02:58:20;99959.03;;;18.27;82.93
17230;BME280;8731;50.364;8.958;2023-05-23T03:02:43;99958.38;;;18.17;83.56
17230;BME280;8731;50.364;8.958;2023-05-23T03:07:06;99963.34;;;18.14;82.70
17230;BME280;8731;50.364;8.958;2023-05-23T03:11:32;99965.47;;;18.06;83.03
17230;BME280;8731;50.364;8.958;2023-05-23T03:15:56;99974.00;;;18.05;82.49
17230;BME280;8731;50.364;8.958;2023-05-23T03:20:20;99981.25;;;17.83;83.20
17230;BME280;8731;50.364;8.958;2023-05-23T03:24:42;99979.28;;;17.78;83.09
17230;BME280;8731;50.364;8.958;2023-05-23T03:29:05;99980.72;;;17.88;81.34
17230;BME280;8731;50.364;8.958;2023-05-23T03:33:31;99984.75;;;17.70;82.30
17230;BME280;8731;50.364;8.958;2023-05-23T03:37:54;99986.44;;;17.69;81.69
17230;BME280;8731;50.364;8.958;2023-05-23T03:42:17;99995.34;;;17.61;82.10
17230;BME280;8731;50.364;8.958;2023-05-23T03:46:39;100000.84;;;17.53;82.48
17230;BME280;8731;50.364;8.958;2023-05-23T03:51:03;100009.94;;;17.47;82.78
17230;BME280;8731;50.364;8.958;2023-05-23T03:55:26;100017.16;;;17.53;81.58
17230;BME280;8731;50.364;8.958;2023-05-23T03:59:53;100019.84;;;17.41;83.81
17230;BME280;8731;50.364;8.958;2023-05-23T04:04:17;100027.28;;;17.37;82.23
17230;BME280;8731;50.364;8.958;2023-05-23T04:08:41;100025.94;;;17.29;81.94
17230;BME280;8731;50.364;8.958;2023-05-23T04:13:05;100031.81;;;17.54;81.21
17230;BME280;8731;50.364;8.958;2023-05-23T04:17:28;100028.78;;;17.20;83.12
17230;BME280;8731;50.364;8.958;2023-05-23T04:21:52;100035.84;;;17.50;81.86
17230;BME280;8731;50.364;8.958;2023-05-23T04:26:15;100037.69;;;17.52;80.83
17230;BME280;8731;50.364;8.958;2023-05-23T04:30:43;100042.13;;;17.41;82.22
17230;BME280;8731;50.364;8.958;2023-05-23T04:35:08;100048.88;;;17.52;80.71
17230;BME280;8731;50.364;8.958;2023-05-23T04:39:34;100055.56;;;17.63;80.51
17230;BME280;8731;50.364;8.958;2023-05-23T04:44:24;100058.22;;;17.65;79.82
17230;BME280;8731;50.364;8.958;2023-05-23T04:49:10;100051.44;;;17.52;80.88
17230;BME280;8731;50.364;8.958;2023-05-23T04:53:33;100052.09;;;17.49;80.77
17230;BME280;8731;50.364;8.958;2023-05-23T04:58:00;100059.34;;;17.68;79.68
17230;BME280;8731;50.364;8.958;2023-05-23T05:02:24;100070.44;;;17.54;79.59
17230;BME280;8731;50.364;8.958;2023-05-23T05:06:55;100064.31;;;17.39;78.52
17230;BME280;8731;50.364;8.958;2023-05-23T05:11:17;100076.28;;;17.52;77.84
17230;BME280;8731;50.364;8.958;2023-05-23T05:15:41;100073.28;;;17.59;77.80
17230;BME280;8731;50.364;8.958;2023-05-23T05:20:07;100071.63;;;17.59;77.92
17230;BME280;8731;50.364;8.958;2023-05-23T05:24:32;100083.31;;;17.67;76.85
17230;BME280;8731;50.364;8.958;2023-05-23T05:28:54;100091.78;;;17.66;75.54
17230;BME280;8731;50.364;8.958;2023-05-23T05:33:18;100089.81;;;17.49;76.76
17230;BME280;8731;50.364;8.958;2023-05-23T05:37:44;100097.34;;;17.46;76.31
17230;BME280;8731;50.364;8.958;2023-05-23T05:42:07;100097.66;;;17.50;75.47
17230;BME280;8731;50.364;8.958;2023-05-23T05:46:31;100104.66;;;17.66;75.09
17230;BME280;8731;50.364;8.958;2023-05-23T05:50:55;100100.72;;;17.71;74.94
17230;BME280;8731;50.364;8.958;2023-05-23T05:55:22;100105.50;;;17.39;76.00
17230;BME280;8731;50.364;8.958;2023-05-23T05:59:48;100109.75;;;17.38;75.80
17230;BME280;8731;50.364;8.958;2023-05-23T06:04:11;100107.75;;;17.61;75.35
17230;BME280;8731;50.364;8.958;2023-05-23T06:08:34;100107.06;;;17.63;74.94
17230;BME280;8731;50.364;8.958;2023-05-23T06:12:58;100096.38;;;17.70;74.86
17230;BME280;8731;50.364;8.958;2023-05-23T06:17:21;100116.78;;;17.81;74.97
17230;BME280;8731;50.364;8.958;2023-05-23T06:21:44;100112.41;;;17.66;75.04
17230;BME280;8731;50.364;8.958;2023-05-23T06:26:08;100118.50;;;17.95;74.70
17230;BME280;8731;50.364;8.958;2023-05-23T06:30:32;100112.19;;;17.90;74.41
17230;BME280;8731;50.364;8.958;2023-05-23T06:34:55;100110.75;;;17.80;75.63
17230;BME280;8731;50.364;8.958;2023-05-23T06:39:20;100113.78;;;18.29;73.76
17230;BME280;8731;50.364;8.958;2023-05-23T06:43:45;100113.97;;;19.04;72.31
17230;BME280;8731;50.364;8.958;2023-05-23T06:48:11;100110.81;;;19.39;70.42
17230;BME280;8731;50.364;8.958;2023-05-23T06:52:33;100116.16;;;19.57;68.61
17230;BME280;8731;50.364;8.958;2023-05-23T06:56:56;100109.38;;;19.74;69.40
17230;BME280;8731;50.364;8.958;2023-05-23T07:01:19;100111.09;;;19.89;68.64
17230;BME280;8731;50.364;8.958;2023-05-23T07:05:45;100115.22;;;20.02;67.63
17230;BME280;8731;50.364;8.958;2023-05-23T07:10:10;100119.03;;;19.92;67.30
17230;BME280;8731;50.364;8.958;2023-05-23T07:14:34;100121.97;;;19.84;67.69
17230;BME280;8731;50.364;8.958;2023-05-23T07:18:59;100118.03;;;20.07;66.87
17230;BME280;8731;50.364;8.958;2023-05-23T07:23:31;100115.63;;;20.10;66.96
17230;BME280;8731;50.364;8.958;2023-05-23T07:27:55;100111.94;;;20.37;66.40
17230;BME280;8731;50.364;8.958;2023-05-23T07:32:19;100123.13;;;20.05;67.82
17230;BME280;8731;50.364;8.958;2023-05-23T07:36:42;100119.47;;;20.49;67.01
17230;BME280;8731;50.364;8.958;2023-05-23T07:41:08;100124.94;;;20.39;67.41
17230;BME280;8731;50.364;8.958;2023-05-23T07:45:31;100122.72;;;20.61;66.77
17230;BME280;8731;50.364;8.958;2023-05-23T07:49:54;100129.72;;;20.15;67.37
17230;BME280;8731;50.364;8.958;2023-05-23T07:54:17;100134.75;;;20.44;66.75
17230;BME280;8731;50.364;8.958;2023-05-23T07:58:42;100128.09;;;19.86;68.79
17230;BME280;8731;50.364;8.958;2023-05-23T08:03:04;100133.97;;;20.79;66.82
17230;BME280;8731;50.364;8.958;2023-05-23T08:07:42;100126.94;;;20.59;66.51
17230;BME280;8731;50.364;8.958;2023-05-23T08:12:07;100135.38;;;20.57;66.75
17230;BME280;8731;50.364;8.958;2023-05-23T08:16:34;100139.50;;;20.53;67.19
17230;BME280;8731;50.364;8.958;2023-05-23T08:20:59;100133.84;;;20.76;65.43
17230;BME280;8731;50.364;8.958;2023-05-23T08:25:23;100135.22;;;20.53;66.78
17230;BME280;8731;50.364;8.958;2023-05-23T08:29:49;100142.59;;;20.62;66.77
17230;BME280;8731;50.364;8.958;2023-05-23T08:34:15;100144.81;;;20.89;65.19
17230;BME280;8731;50.364;8.958;2023-05-23T08:38:37;100143.44;;;20.95;66.67
17230;BME280;8731;50.364;8.958;2023-05-23T08:43:06;100153.13;;;20.99;65.84
17230;BME280;8731;50.364;8.958;2023-05-23T08:47:35;100150.50;;;21.15;65.26
17230;BME280;8731;50.364;8.958;2023-05-23T08:52:02;100146.66;;;21.59;63.78
17230;BME280;8731;50.364;8.958;2023-05-23T08:56:27;100145.91;;;21.62;62.88
17230;BME280;8731;50.364;8.958;2023-05-23T09:00:52;100143.03;;;21.22;62.38
17230;BME280;8731;50.364;8.958;2023-05-23T09:05:16;100150.09;;;21.24;62.61
17230;BME280;8731;50.364;8.958;2023-05-23T09:09:41;100155.97;;;21.38;62.88
17230;BME280;8731;50.364;8.958;2023-05-23T09:14:07;100157.63;;;20.86;64.47
17230;BME280;8731;50.364;8.958;2023-05-23T09:18:33;100165.00;;;21.12;64.09
17230;BME280;8731;50.364;8.958;2023-05-23T09:22:58;100160.88;;;20.99;65.06
17230;BME280;8731;50.364;8.958;2023-05-23T09:27:23;100170.47;;;20.84;63.91
17230;BME280;8731;50.364;8.958;2023-05-23T09:31:46;100170.41;;;20.66;64.41
17230;BME280;8731;50.364;8.958;2023-05-23T09:36:08;100169.38;;;20.63;65.55
17230;BME280;8731;50.364;8.958;2023-05-23T09:40:31;100164.06;;;20.77;64.51
17230;BME280;8731;50.364;8.958;2023-05-23T09:44:59;100166.94;;;20.82;64.94
17230;BME280;8731;50.364;8.958;2023-05-23T09:49:25;100169.75;;;20.70;65.56
17230;BME280;8731;50.364;8.958;2023-05-23T09:53:48;100179.94;;;20.51;65.46
17230;BME280;8731;50.364;8.958;2023-05-23T09:58:12;100172.56;;;20.75;65.68
17230;BME280;8731;50.364;8.958;2023-05-23T10:02:53;100188.34;;;20.47;64.96
17230;BME280;8731;50.364;8.958;2023-05-23T10:07:19;100181.75;;;21.02;64.47
17230;BME280;8731;50.364;8.958;2023-05-23T10:12:32;100178.63;;;21.08;64.29
17230;BME280;8731;50.364;8.958;2023-05-23T10:17:07;100176.19;;;21.45;64.35
17230;BME280;8731;50.364;8.958;2023-05-23T10:21:41;100182.91;;;21.41;64.37
17230;BME280;8731;50.364;8.958;2023-05-23T10:26:07;100190.41;;;21.03;62.27
17230;BME280;8731;50.364;8.958;2023-05-23T10:30:33;100193.34;;;21.09;61.47
17230;BME280;8731;50.364;8.958;2023-05-23T10:34:59;100198.09;;;21.18;61.65
17230;BME280;8731;50.364;8.958;2023-05-23T10:39:40;100201.25;;;21.12;61.72
17230;BME280;8731;50.364;8.958;2023-05-23T10:44:13;100209.50;;;20.40;62.85
17230;BME280;8731;50.364;8.958;2023-05-23T10:48:41;100206.28;;;20.76;62.98
17230;BME280;8731;50.364;8.958;2023-05-23T10:53:05;100208.25;;;20.33;62.19
17230;BME280;8731;50.364;8.958;2023-05-23T10:57:29;100211.56;;;20.62;62.66
17230;BME280;8731;50.364;8.958;2023-05-23T11:01:52;100216.19;;;20.67;63.10
17230;BME280;8731;50.364;8.958;2023-05-23T11:06:28;100225.88;;;20.71;61.26
17230;BME280;8731;50.364;8.958;2023-05-23T11:10:54;100220.84;;;20.58;61.90
17230;BME280;8731;50.364;8.958;2023-05-23T11:15:20;100222.06;;;20.48;61.95
17230;BME280;8731;50.364;8.958;2023-05-23T11:19:55;100221.09;;;20.46;62.39
17230;BME280;8731;50.364;8.958;2023-05-23T11:24:21;100222.63;;;20.92;62.33
17230;BME280;8731;50.364;8.958;2023-05-23T11:28:54;100226.09;;;20.76;61.40
17230;BME280;8731;50.364;8.958;2023-05-23T11:33:18;100232.97;;;20.28;62.32
17230;BME280;8731;50.364;8.958;2023-05-23T11:37:42;100227.44;;;20.37;62.43
17230;BME280;8731;50.364;8.958;2023-05-23T11:42:05;100234.78;;;20.60;61.74
17230;BME280;8731;50.364;8.958;2023-05-23T11:46:27;100241.09;;;20.65;63.28
17230;BME280;8731;50.364;8.958;2023-05-23T11:50:52;100240.97;;;20.80;61.79
17230;BME280;8731;50.364;8.958;2023-05-23T11:55:15;100242.69;;;20.79;62.61
17230;BME280;8731;50.364;8.958;2023-05-23T11:59:39;100242.19;;;21.03;61.06
17230;BME280;8731;50.364;8.958;2023-05-23T12:04:08;100242.22;;;20.87;62.42
17230;BME280;8731;50.364;8.958;2023-05-23T12:08:33;100249.34;;;21.07;60.97
17230;BME280;8731;50.364;8.958;2023-05-23T12:12:56;100243.44;;;21.09;61.12
17230;BME280;8731;50.364;8.958;2023-05-23T12:17:18;100249.63;;;20.80;61.71
17230;BME280;8731;50.364;8.958;2023-05-23T12:21:42;100247.06;;;21.13;60.64
17230;BME280;8731;50.364;8.958;2023-05-23T12:26:07;100248.25;;;21.36;59.98
17230;BME280;8731;50.364;8.958;2023-05-23T12:30:40;100255.81;;;20.82;59.96
17230;BME280;8731;50.364;8.958;2023-05-23T12:35:03;100256.59;;;20.65;60.63
17230;BME280;8731;50.364;8.958;2023-05-23T12:39:27;100260.88;;;20.34;61.56
17230;BME280;8731;50.364;8.958;2023-05-23T12:43:55;100255.19;;;20.24;61.63
17230;BME280;8731;50.364;8.958;2023-05-23T12:48:18;100263.06;;;20.73;60.29
17230;BME280;8731;50.364;8.958;2023-05-23T12:52:40;100265.94;;;20.47;60.33
17230;BME280;8731;50.364;8.958;2023-05-23T12:57:02;100268.00;;;20.38;61.03
17230;BME280;8731;50.364;8.958;2023-05-23T13:01:26;100271.97;;;20.62;60.74
17230;BME280;8731;50.364;8.958;2023-05-23T13:05:49;100270.69;;;20.87;60.27
17230;BME280;8731;50.364;8.958;2023-05-23T13:10:13;100269.22;;;20.75;60.18
17230;BME280;8731;50.364;8.958;2023-05-23T13:14:35;100273.94;;;20.82;60.65
17230;BME280;8731;50.364;8.958;2023-05-23T13:19:00;100267.13;;;20.37;61.04
17230;BME280;8731;50.364;8.958;2023-05-23T13:23:22;100278.28;;;20.67;61.22
17230;BME280;8731;50.364;8.958;2023-05-23T13:27:45;100280.50;;;19.84;62.58
17230;BME280;8731;50.364;8.958;2023-05-23T13:32:08;100287.91;;;20.39;60.93
17230;BME280;8731;50.364;8.958;2023-05-23T13:36:32;100286.22;;;20.24;61.42
17230;BME280;8731;50.364;8.958;2023-05-23T13:40:55;100289.22;;;20.47;61.22
17230;BME280;8731;50.364;8.958;2023-05-23T13:45:18;100287.59;;;20.18;61.35
17230;BME280;8731;50.364;8.958;2023-05-23T13:49:41;100294.06;;;19.66;63.21
17230;BME280;8731;50.364;8.958;2023-05-23T13:54:06;100294.84;;;19.94;61.89
17230;BME280;8731;50.364;8.958;2023-05-23T13:58:28;100292.44;;;19.82;62.73
17230;BME280;8731;50.364;8.958;2023-05-23T14:02:51;100296.63;;;19.95;61.87
17230;BME280;8731;50.364;8.958;2023-05-23T14:07:14;100306.94;;;19.51;63.32
17230;BME280;8731;50.364;8.958;2023-05-23T14:11:39;100318.53;;;19.57;63.36
17230;BME280;8731;50.364;8.958;2023-05-23T14:16:01;100325.44;;;19.01;62.66
17230;BME280;8731;50.364;8.958;2023-05-23T14:20:24;100323.44;;;19.25;62.90
17230;BME280;8731;50.364;8.958;2023-05-23T14:24:48;100329.78;;;19.02;63.77
17230;BME280;8731;50.364;8.958;2023-05-23T14:29:12;100333.09;;;19.14;63.32
17230;BME280;8731;50.364;8.958;2023-05-23T14:33:35;100317.41;;;19.39;63.01
17230;BME280;8731;50.364;8.958;2023-05-23T14:37:57;100322.69;;;19.41;62.88
17230;BME280;8731;50.364;8.958;2023-05-23T14:42:20;100330.56;;;19.29;63.93
17230;BME280;8731;50.364;8.958;2023-05-23T14:46:44;100331.28;;;19.26;64.15
17230;BME280;8731;50.364;8.958;2023-05-23T14:51:08;100327.50;;;19.49;62.97
17230;BME280;8731;50.364;8.958;2023-05-23T14:55:30;100331.28;;;19.54;62.65
17230;BME280;8731;50.364;8.958;2023-05-23T14:59:53;100330.03;;;19.62;62.59
17230;BME280;8731;50.364;8.958;2023-05-23T15:04:17;100334.50;;;19.37;61.88
17230;BME280;8731;50.364;8.958;2023-05-23T15:08:39;100337.19;;;19.11;62.04
17230;BME280;8731;50.364;8.958;2023-05-23T15:13:02;100342.88;;;18.64;62.88
17230;BME280;8731;50.364;8.958;2023-05-23T15:17:26;100342.78;;;19.04;62.24
17230;BME280;8731;50.364;8.958;2023-05-23T15:21:50;100349.03;;;19.07;60.88
17230;BME280;8731;50.364;8.958;2023-05-23T15:26:13;100350.50;;;18.76;61.09
17230;BME280;8731;50.364;8.958;2023-05-23T15:30:36;100354.88;;;19.18;60.72
17230;BME280;8731;50.364;8.958;2023-05-23T15:35:00;100347.97;;;18.90;61.10
17230;BME280;8731;50.364;8.958;2023-05-23T15:39:25;100348.41;;;18.83;61.88
17230;BME280;8731;50.364;8.958;2023-05-23T15:43:47;100351.41;;;18.76;61.77
17230;BME280;8731;50.364;8.958;2023-05-23T15:48:10;100355.44;;;18.86;61.61
17230;BME280;8731;50.364;8.958;2023-05-23T15:52:32;100365.47;;;18.68;61.83
17230;BME280;8731;50.364;8.958;2023-05-23T15:56:56;100365.88;;;18.61;61.44
17230;BME280;8731;50.364;8.958;2023-05-23T16:01:18;100370.06;;;18.72;60.74
17230;BME280;8731;50.364;8.958;2023-05-23T16:05:41;100383.06;;;18.47;61.33
17230;BME280;8731;50.364;8.958;2023-05-23T16:10:05;100386.41;;;18.59;59.91
17230;BME280;8731;50.364;8.958;2023-05-23T16:14:30;100386.09;;;18.15;60.79
17230;BME280;8731;50.364;8.958;2023-05-23T16:18:52;100387.50;;;18.23;59.94
17230;BME280;8731;50.364;8.958;2023-05-23T16:23:15;100379.34;;;18.44;59.52
17230;BME280;8731;50.364;8.958;2023-05-23T16:27:37;100382.91;;;18.19;59.38
17230;BME280;8731;50.364;8.958;2023-05-23T16:32:02;100376.06;;;18.20;60.20
17230;BME280;8731;50.364;8.958;2023-05-23T16:36:25;100383.06;;;17.83;58.66
17230;BME280;8731;50.364;8.958;2023-05-23T16:40:48;100382.09;;;17.94;57.59
17230;BME280;8731;50.364;8.958;2023-05-23T16:45:11;100373.16;;;17.89;57.92
17230;BME280;8731;50.364;8.958;2023-05-23T16:49:35;100376.63;;;17.89;58.01
17230;BME280;8731;50.364;8.958;2023-05-23T16:53:58;100389.16;;;17.71;57.57
17230;BME280;8731;50.364;8.958;2023-05-23T16:58:20;100380.50;;;17.96;57.94
17230;BME280;8731;50.364;8.958;2023-05-23T17:02:43;100381.19;;;17.93;58.20
17230;BME280;8731;50.364;8.958;2023-05-23T17:07:07;100387.03;;;17.66;58.67
17230;BME280;8731;50.364;8.958;2023-05-23T17:11:29;100386.34;;;17.30;60.11
17230;BME280;8731;50.364;8.958;2023-05-23T17:15:52;100382.59;;;17.38;59.79
17230;BME280;8731;50.364;8.958;2023-05-23T17:20:14;100394.84;;;17.54;59.65
17230;BME280;8731;50.364;8.958;2023-05-23T17:24:38;100388.22;;;17.33;59.61
17230;BME280;8731;50.364;8.958;2023-05-23T17:29:01;100384.44;;;17.28;60.05
17230;BME280;8731;50.364;8.958;2023-05-23T17:33:23;100390.56;;;17.05;60.86
17230;BME280;8731;50.364;8.958;2023-05-23T17:37:46;100387.22;;;16.94;59.62
17230;BME280;8731;50.364;8.958;2023-05-23T17:42:12;100387.16;;;17.17;58.44
17230;BME280;8731;50.364;8.958;2023-05-23T17:46:36;100400.94;;;17.06;58.05
17230;BME280;8731;50.364;8.958;2023-05-23T17:50:59;100401.53;;;16.79;58.65
17230;BME280;8731;50.364;8.958;2023-05-23T17:55:21;100406.56;;;16.89;58.30
17230;BME280;8731;50.364;8.958;2023-05-23T17:59:45;100409.16;;;16.89;58.30
17230;BME280;8731;50.364;8.958;2023-05-23T18:04:07;100419.44;;;16.66;59.43
17230;BME280;8731;50.364;8.958;2023-05-23T18:08:30;100417.44;;;16.85;58.83
17230;BME280;8731;50.364;8.958;2023-05-23T18:12:54;100413.50;;;16.90;58.72
17230;BME280;8731;50.364;8.958;2023-05-23T18:17:18;100418.09;;;16.47;59.84
17230;BME280;8731;50.364;8.958;2023-05-23T18:21:41;100417.44;;;16.62;59.09
17230;BME280;8731;50.364;8.958;2023-05-23T18:26:04;100424.56;;;16.77;58.66
17230;BME280;8731;50.364;8.958;2023-05-23T18:30:28;100422.78;;;16.76;58.92
17230;BME280;8731;50.364;8.958;2023-05-23T18:34:53;100423.47;;;16.74;58.83
17230;BME280;8731;50.364;8.958;2023-05-23T18:39:16;100417.97;;;16.46;59.38
17230;BME280;8731;50.364;8.958;2023-05-23T18:43:40;100425.56;;;16.56;59.55
17230;BME280;8731;50.364;8.958;2023-05-23T18:48:02;100426.34;;;16.20;60.45
17230;BME280;8731;50.364;8.958;2023-05-23T18:52:27;100434.03;;;16.20;60.19
17230;BME280;8731;50.364;8.958;2023-05-23T18:56:49;100445.06;;;15.95;60.46
17230;BME280;8731;50.364;8.958;2023-05-23T19:01:12;100441.50;;;16.05;60.82
17230;BME280;8731;50.364;8.958;2023-05-23T19:05:35;100456.00;;;15.49;62.53
17230;BME280;8731;50.364;8.958;2023-05-23T19:09:59;100461.06;;;15.38;63.03
17230;BME280;8731;50.364;8.958;2023-05-23T19:14:21;100472.66;;;15.64;62.39
17230;BME280;8731;50.364;8.958;2023-05-23T19:18:44;100463.94;;;15.62;61.53
17230;BME280;8731;50.364;8.958;2023-05-23T19:23:06;100462.22;;;15.41;61.78
17230;BME280;8731;50.364;8.958;2023-05-23T19:27:30;100463.34;;;15.45;61.86
17230;BME280;8731;50.364;8.958;2023-05-23T19:31:52;100476.28;;;15.24;61.80
17230;BME280;8731;50.364;8.958;2023-05-23T19:36:15;100471.09;;;15.34;61.43
17230;BME280;8731;50.364;8.958;2023-05-23T19:40:37;100478.03;;;15.35;60.94
17230;BME280;8731;50.364;8.958;2023-05-23T19:45:02;100476.13;;;15.33;60.89
17230;BME280;8731;50.364;8.958;2023-05-23T19:49:25;100486.63;;;15.04;61.48
17230;BME280;8731;50.364;8.958;2023-05-23T19:53:48;100488.72;;;14.98;61.76
17230;BME280;8731;50.364;8.958;2023-05-23T19:58:11;100484.38;;;14.87;62.35
17230;BME280;8731;50.364;8.958;2023-05-23T20:02:35;100494.34;;;15.04;61.40
17230;BME280;8731;50.364;8.958;2023-05-23T20:06:58;100497.66;;;15.03;61.09
17230;BME280;8731;50.364;8.958;2023-05-23T20:11:20;100506.56;;;14.96;61.00
17230;BME280;8731;50.364;8.958;2023-05-23T20:15:43;100513.88;;;14.92;61.87
17230;BME280;8731;50.364;8.958;2023-05-23T20:20:08;100506.97;;;14.91;61.89
17230;BME280;8731;50.364;8.958;2023-05-23T20:24:31;100520.47;;;14.58;61.90
17230;BME280;8731;50.364;8.958;2023-05-23T20:28:53;100521.75;;;14.63;60.99
17230;BME280;8731;50.364;8.958;2023-05-23T20:33:17;100529.31;;;14.61;61.17
17230;BME280;8731;50.364;8.958;2023-05-23T20:37:42;100526.53;;;14.48;60.95
17230;BME280;8731;50.364;8.958;2023-05-23T20:42:04;100538.78;;;14.01;61.81
17230;BME280;8731;50.364;8.958;2023-05-23T20:46:29;100527.25;;;14.27;61.08
17230;BME280;8731;50.364;8.958;2023-05-23T20:50:55;100538.25;;;14.16;61.60
17230;BME280;8731;50.364;8.958;2023-05-23T20:55:20;100524.03;;;14.19;61.21
17230;BME280;8731;50.364;8.958;2023-05-23T20:59:42;100529.44;;;14.02;61.13
17230;BME280;8731;50.364;8.958;2023-05-23T21:04:05;100533.91;;;14.04;61.49
17230;BME280;8731;50.364;8.958;2023-05-23T21:08:28;100533.75;;;13.93;61.63
17230;BME280;8731;50.364;8.958;2023-05-23T21:12:53;100541.31;;;13.81;61.73
17230;BME280;8731;50.364;8.958;2023-05-23T21:17:15;100550.78;;;13.82;61.44
17230;BME280;8731;50.364;8.958;2023-05-23T21:21:38;100555.72;;;13.70;62.58
17230;BME280;8731;50.364;8.958;2023-05-23T21:26:01;100556.78;;;13.72;61.79
17230;BME280;8731;50.364;8.958;2023-05-23T21:30:25;100553.78;;;13.58;62.46
17230;BME280;8731;50.364;8.958;2023-05-23T21:34:47;100550.97;;;13.55;63.09
17230;BME280;8731;50.364;8.958;2023-05-23T21:39:10;100560.06;;;13.61;62.51
17230;BME280;8731;50.364;8.958;2023-05-23T21:43:33;100564.72;;;13.46;62.54
17230;BME280;8731;50.364;8.958;2023-05-23T21:47:57;100562.59;;;13.51;61.98
17230;BME280;8731;50.364;8.958;2023-05-23T21:52:20;100575.06;;;13.38;62.43
17230;BME280;8731;50.364;8.958;2023-05-23T21:56:42;100575.84;;;12.99;63.95
17230;BME280;8731;50.364;8.958;2023-05-23T22:01:05;100580.66;;;13.15;62.67
17230;BME280;8731;50.364;8.958;2023-05-23T22:05:29;100581.94;;;13.10;62.42
17230;BME280;8731;50.364;8.958;2023-05-23T22:09:51;100587.88;;;13.19;62.21
17230;BME280;8731;50.364;8.958;2023-05-23T22:14:15;100579.50;;;12.93;63.11
17230;BME280;8731;50.364;8.958;2023-05-23T22:18:37;100582.97;;;12.93;63.35
17230;BME280;8731;50.364;8.958;2023-05-23T22:23:03;100585.94;;;12.98;63.12
17230;BME280;8731;50.364;8.958;2023-05-23T22:27:26;100591.22;;;12.80;63.83
17230;BME280;8731;50.364;8.958;2023-05-23T22:31:49;100590.72;;;13.03;63.45
17230;BME280;8731;50.364;8.958;2023-05-23T22:36:11;100601.88;;;13.14;63.32
17230;BME280;8731;50.364;8.958;2023-05-23T22:40:36;100605.47;;;12.97;63.69
17230;BME280;8731;50.364;8.958;2023-05-23T22:44:59;100604.53;;;12.86;64.85
17230;BME280;8731;50.364;8.958;2023-05-23T22:49:21;100609.09;;;12.53;66.10
17230;BME280;8731;50.364;8.958;2023-05-23T22:53:44;100613.19;;;12.51;66.56
17230;BME280;8731;50.364;8.958;2023-05-23T22:58:08;100613.63;;;12.74;64.85
17230;BME280;8731;50.364;8.958;2023-05-23T23:02:32;100613.56;;;12.64;65.49
17230;BME280;8731;50.364;8.958;2023-05-23T23:06:55;100613.63;;;12.74;65.60
17230;BME280;8731;50.364;8.958;2023-05-23T23:11:18;100616.19;;;12.74;65.89
17230;BME280;8731;50.364;8.958;2023-05-23T23:15:42;100606.59;;;12.72;65.53
17230;BME280;8731;50.364;8.958;2023-05-23T23:20:09;100613.34;;;12.71;65.41
17230;BME280;8731;50.364;8.958;2023-05-23T23:24:32;100619.09;;;12.41;66.47